createdAt,value
2018-03-30T00:00:45.295Z,13.83
2018-03-30T00:03:12.711Z,17.27
2018-03-30T00:05:40.211Z,16.27
2018-03-30T00:08:07.662Z,17.13
2018-03-30T00:10:40.846Z,13.77
2018-03-30T00:13:08.363Z,14.80
2018-03-30T00:15:35.817Z,17.57
2018-03-30T00:18:03.277Z,16.20
2018-03-30T00:20:30.733Z,19.53
2018-03-30T00:22:58.248Z,22.07
2018-03-30T00:25:25.752Z,19.83
2018-03-30T00:27:53.229Z,24.03
2018-03-30T00:30:20.737Z,18.27
2018-03-30T00:32:48.220Z,25.60
2018-03-30T00:35:15.745Z,22.33
2018-03-30T00:37:43.197Z,25.83
2018-03-30T00:40:10.643Z,27.30
2018-03-30T00:42:38.207Z,30.53
2018-03-30T00:45:05.667Z,31.20
2018-03-30T00:47:33.243Z,28.77
2018-03-30T00:50:00.689Z,26.27
2018-03-30T00:52:28.140Z,29.17
2018-03-30T00:54:56.339Z,26.03
2018-03-30T00:57:23.791Z,26.17
2018-03-30T00:59:51.347Z,27.23
2018-03-30T01:02:18.788Z,27.90
2018-03-30T01:04:46.307Z,24.47
2018-03-30T01:07:13.806Z,27.77
2018-03-30T01:09:41.282Z,26.23
2018-03-30T01:12:08.895Z,26.30
2018-03-30T01:14:36.355Z,25.37
2018-03-30T01:17:03.835Z,24.80
2018-03-30T01:19:31.781Z,25.50
2018-03-30T01:21:59.203Z,23.50
2018-03-30T01:24:26.683Z,27.43
2018-03-30T01:26:55.037Z,26.13
2018-03-30T01:29:22.471Z,24.83
2018-03-30T01:31:49.932Z,23.87
2018-03-30T01:34:18.392Z,23.50
2018-03-30T01:36:45.944Z,24.30
2018-03-30T01:39:13.390Z,24.70
2018-03-30T01:41:40.851Z,22.27
2018-03-30T01:44:08.323Z,26.10
2018-03-30T01:46:36.582Z,23.27
2018-03-30T01:49:04.101Z,33.87
2018-03-30T01:51:31.556Z,29.03
2018-03-30T01:53:59.019Z,23.67
2018-03-30T01:56:26.477Z,25.07
2018-03-30T01:58:53.963Z,22.50
2018-03-30T02:01:21.405Z,27.50
2018-03-30T02:03:48.848Z,24.50
2018-03-30T02:06:16.383Z,26.10
2018-03-30T02:08:43.896Z,27.33
2018-03-30T02:11:11.357Z,24.43
2018-03-30T02:13:38.838Z,29.90
2018-03-30T02:16:06.307Z,21.13
2018-03-30T02:18:33.801Z,23.97
2018-03-30T02:21:01.263Z,23.83
2018-03-30T02:26:45.136Z,28.37
2018-03-30T02:29:12.584Z,25.77
2018-03-30T02:31:40.076Z,21.97
2018-03-30T02:34:07.539Z,24.70
2018-03-30T02:36:34.960Z,31.20
2018-03-30T02:39:02.382Z,25.83
2018-03-30T02:41:30.547Z,25.63
2018-03-30T02:43:58.227Z,25.23
2018-03-30T02:46:25.664Z,28.57
2018-03-30T02:48:53.122Z,26.47
2018-03-30T02:51:20.615Z,26.77
2018-03-30T02:53:48.079Z,24.10
2018-03-30T02:56:15.560Z,24.20
2018-03-30T02:58:42.997Z,27.40
2018-03-30T03:01:10.455Z,26.40
2018-03-30T03:03:37.945Z,25.60
2018-03-30T03:06:05.470Z,25.53
2018-03-30T03:08:33.021Z,26.93
2018-03-30T03:11:00.508Z,30.10
2018-03-30T03:13:28.032Z,25.03
2018-03-30T03:15:55.494Z,26.37
2018-03-30T03:18:23.024Z,30.10
2018-03-30T03:20:50.528Z,29.83
2018-03-30T03:23:17.997Z,25.87
2018-03-30T03:25:45.494Z,29.30
2018-03-30T03:28:13.014Z,30.80
2018-03-30T03:30:40.589Z,27.93
2018-03-30T03:33:08.140Z,28.20
2018-03-30T03:35:35.635Z,27.53
2018-03-30T03:38:03.092Z,27.47
2018-03-30T03:40:30.594Z,28.53
2018-03-30T03:42:58.479Z,31.57
2018-03-30T03:45:25.979Z,28.03
2018-03-30T03:47:53.430Z,27.60
2018-03-30T03:50:20.926Z,32.00
2018-03-30T03:52:48.363Z,28.73
2018-03-30T03:55:16.452Z,28.00
2018-03-30T03:57:43.921Z,30.87
2018-03-30T04:00:11.399Z,28.77
2018-03-30T04:02:39.137Z,31.47
2018-03-30T04:05:06.590Z,28.40
2018-03-30T04:07:34.087Z,28.30
2018-03-30T04:10:01.590Z,29.57
2018-03-30T04:12:29.906Z,29.60
2018-03-30T04:14:57.408Z,29.57
2018-03-30T04:17:24.945Z,28.03
2018-03-30T04:19:52.476Z,29.87
2018-03-30T04:22:25.017Z,30.70
2018-03-30T04:24:52.535Z,30.20
2018-03-30T04:27:30.697Z,26.90
2018-03-30T04:29:58.234Z,27.90
2018-03-30T04:32:25.910Z,28.60
2018-03-30T04:34:53.355Z,31.13
2018-03-30T04:37:20.818Z,29.17
2018-03-30T04:39:48.707Z,28.57
2018-03-30T04:42:16.166Z,31.93
2018-03-30T04:44:43.624Z,27.47
2018-03-30T04:47:11.096Z,29.73
2018-03-30T04:49:38.603Z,30.13
2018-03-30T04:52:06.100Z,26.60
2018-03-30T04:54:35.404Z,25.33
2018-03-30T04:57:02.863Z,23.10
2018-03-30T04:59:30.881Z,24.53
2018-03-30T05:01:58.355Z,26.73
2018-03-30T05:04:26.034Z,28.37
2018-03-30T05:06:53.515Z,25.43
2018-03-30T05:09:22.009Z,22.97
2018-03-30T05:11:49.441Z,22.13
2018-03-30T05:14:16.954Z,24.23
2018-03-30T05:16:44.446Z,22.10
2018-03-30T05:19:11.911Z,23.03
2018-03-30T05:21:39.397Z,25.43
2018-03-30T05:24:07.174Z,27.33
2018-03-30T05:26:34.681Z,26.37
2018-03-30T05:29:02.165Z,26.47
2018-03-30T05:31:29.673Z,25.27
2018-03-30T05:33:57.151Z,26.73
2018-03-30T05:36:24.607Z,24.67
2018-03-30T05:38:52.177Z,25.93
2018-03-30T05:41:19.653Z,23.00
2018-03-30T05:43:47.688Z,26.87
2018-03-30T05:46:15.813Z,27.10
2018-03-30T05:48:43.957Z,25.03
2018-03-30T05:51:12.655Z,25.43
2018-03-30T05:53:41.103Z,24.50
2018-03-30T05:56:09.617Z,27.20
2018-03-30T05:58:37.169Z,27.87
2018-03-30T06:01:04.719Z,27.67
2018-03-30T06:03:32.228Z,26.07
2018-03-30T06:06:00.007Z,24.37
2018-03-30T06:08:27.515Z,24.63
2018-03-30T06:10:54.985Z,24.53
2018-03-30T06:13:22.584Z,25.37
2018-03-30T06:15:50.113Z,24.30
2018-03-30T06:18:17.656Z,25.70
2018-03-30T06:20:45.182Z,26.63
2018-03-30T06:23:13.196Z,24.13
2018-03-30T06:25:40.693Z,24.07
2018-03-30T06:28:08.315Z,25.80
2018-03-30T06:30:36.433Z,24.37
2018-03-30T06:33:04.447Z,24.90
2018-03-30T06:35:32.027Z,23.97
2018-03-30T06:37:59.633Z,21.43
2018-03-30T06:40:28.070Z,20.90
2018-03-30T06:42:55.525Z,23.97
2018-03-30T06:45:23.472Z,26.20
2018-03-30T06:47:50.921Z,22.17
2018-03-30T06:50:18.355Z,21.97
2018-03-30T06:52:45.815Z,22.77
2018-03-30T06:55:14.906Z,24.50
2018-03-30T06:57:42.399Z,22.40
2018-03-30T07:00:09.887Z,22.30
2018-03-30T07:08:32.199Z,21.10
2018-03-30T07:10:59.691Z,19.47
2018-03-30T07:13:27.211Z,22.50
2018-03-30T07:15:54.769Z,20.87
2018-03-30T07:18:22.567Z,19.17
2018-03-30T07:20:50.210Z,20.00
2018-03-30T07:23:19.555Z,20.40
2018-03-30T07:25:49.491Z,19.83
2018-03-30T07:28:17.679Z,19.37
2018-03-30T07:30:48.481Z,19.80
2018-03-30T07:33:16.817Z,20.10
2018-03-30T07:35:45.520Z,18.53
2018-03-30T07:38:13.186Z,18.33
2018-03-30T07:40:40.967Z,19.67
2018-03-30T07:43:09.457Z,17.73
2018-03-30T07:45:37.844Z,17.43
2018-03-30T07:48:06.145Z,17.27
2018-03-30T07:50:39.289Z,18.60
2018-03-30T07:56:00.417Z,19.53
2018-03-30T07:58:28.169Z,19.80
2018-03-30T08:00:59.189Z,16.47
2018-03-30T08:10:45.344Z,17.90
2018-03-30T08:13:13.418Z,17.53
2018-03-30T08:15:42.184Z,19.63
2018-03-30T08:18:09.999Z,18.47
2018-03-30T08:20:37.519Z,18.30
2018-03-30T08:23:10.093Z,15.90
2018-03-30T08:25:38.613Z,18.00
2018-03-30T08:28:06.647Z,21.47
2018-03-30T08:30:34.195Z,15.57
2018-03-30T08:33:01.663Z,20.07
2018-03-30T08:35:30.071Z,17.77
2018-03-30T08:37:57.698Z,17.93
2018-03-30T08:40:25.286Z,17.37
2018-03-30T08:42:52.769Z,16.23
2018-03-30T08:45:20.345Z,18.27
2018-03-30T08:47:48.169Z,19.50
2018-03-30T08:50:15.692Z,19.23
2018-03-30T08:52:43.263Z,18.93
2018-03-30T08:55:10.779Z,19.87
2018-03-30T08:57:38.293Z,25.87
2018-03-30T09:00:05.787Z,21.00
2018-03-30T09:02:33.297Z,19.37
2018-03-30T09:05:00.922Z,19.90
2018-03-30T09:07:28.467Z,21.77
2018-03-30T09:09:56.262Z,21.77
2018-03-30T09:12:23.814Z,23.63
2018-03-30T09:14:52.787Z,21.70
2018-03-30T09:17:21.143Z,21.17
2018-03-30T09:19:51.078Z,20.13
2018-03-30T09:22:18.735Z,22.97
2018-03-30T09:24:46.257Z,19.23
2018-03-30T09:27:14.255Z,21.40
2018-03-30T09:29:47.461Z,14.83
2018-03-30T09:32:14.939Z,18.40
2018-03-30T09:34:42.424Z,16.90
2018-03-30T09:37:10.033Z,15.37
2018-03-30T09:39:39.851Z,15.80
2018-03-30T09:42:07.893Z,14.63
2018-03-30T09:44:36.582Z,17.63
2018-03-30T09:47:04.394Z,14.80
2018-03-30T09:49:32.764Z,13.57
2018-03-30T09:52:01.107Z,13.63
2018-03-30T09:54:28.589Z,11.80
2018-03-30T09:56:57.856Z,12.67
2018-03-30T09:59:25.550Z,12.30
2018-03-30T10:01:53.175Z,10.23
2018-03-30T10:04:23.868Z,10.83
2018-03-30T10:06:51.324Z,10.53
2018-03-30T10:09:18.962Z,10.33
2018-03-30T10:11:46.488Z,13.37
2018-03-30T10:14:13.943Z,10.27
2018-03-30T10:16:43.271Z,10.50
2018-03-30T10:19:11.060Z,11.80
2018-03-30T10:21:38.720Z,11.70
2018-03-30T10:24:06.782Z,10.23
2018-03-30T10:26:35.018Z,10.83
2018-03-30T10:29:02.484Z,10.40
2018-03-30T10:31:29.932Z,9.30
2018-03-30T10:33:57.493Z,10.37
2018-03-30T10:36:25.061Z,8.83
2018-03-30T10:38:52.536Z,10.93
2018-03-30T10:41:20.064Z,8.07
2018-03-30T10:43:49.654Z,9.70
2018-03-30T10:46:17.138Z,7.83
2018-03-30T10:48:44.661Z,6.70
2018-03-30T10:51:12.175Z,7.33
2018-03-30T10:53:54.066Z,8.60
2018-03-30T10:56:21.547Z,6.93
2018-03-30T10:58:49.012Z,6.60
2018-03-30T11:01:17.366Z,6.43
2018-03-30T11:03:44.908Z,7.22
2018-03-30T11:06:12.434Z,6.97
2018-03-30T11:11:07.457Z,7.87
2018-03-30T11:16:37.524Z,9.25
2018-03-30T11:19:04.986Z,9.30
2018-03-30T11:21:32.452Z,8.88
2018-03-30T11:24:14.119Z,8.25
2018-03-30T11:26:41.688Z,9.15
2018-03-30T11:29:09.211Z,8.95
2018-03-30T11:31:36.710Z,9.07
2018-03-30T11:34:04.186Z,9.27
2018-03-30T11:36:31.680Z,8.45
2018-03-30T11:38:59.228Z,9.43
2018-03-30T11:41:26.726Z,9.00
2018-03-30T11:43:54.188Z,8.88
2018-03-30T11:46:22.874Z,9.07
2018-03-30T11:48:50.386Z,10.23
2018-03-30T11:51:17.899Z,9.35
2018-03-30T11:53:45.370Z,9.23
2018-03-30T11:56:12.855Z,10.27
2018-03-30T11:58:41.146Z,9.65
2018-03-30T12:01:08.604Z,9.27
2018-03-30T12:03:41.007Z,10.35
2018-03-30T12:06:08.526Z,10.70
2018-03-30T12:08:35.971Z,11.10
2018-03-30T12:11:03.524Z,12.43
2018-03-30T12:13:45.185Z,11.43
2018-03-30T12:16:15.284Z,11.48
2018-03-30T12:18:42.782Z,11.38
2018-03-30T12:21:10.300Z,11.07
2018-03-30T12:23:42.738Z,10.87
2018-03-30T12:26:10.242Z,11.50
2018-03-30T12:28:37.712Z,10.67
2018-03-30T12:31:05.983Z,11.77
2018-03-30T12:33:33.804Z,12.20
2018-03-30T12:36:01.989Z,11.23
2018-03-30T12:38:30.431Z,11.30
2018-03-30T12:40:58.005Z,11.32
2018-03-30T12:43:25.476Z,11.43
2018-03-30T12:45:52.981Z,10.95
2018-03-30T12:48:21.390Z,11.55
2018-03-30T12:50:49.378Z,10.40
2018-03-30T12:53:31.120Z,10.80
2018-03-30T12:55:58.649Z,10.15
2018-03-30T12:58:26.275Z,11.05
2018-03-30T13:00:53.720Z,10.90
2018-03-30T13:03:22.154Z,11.00
2018-03-30T13:05:49.707Z,11.12
2018-03-30T13:08:17.370Z,10.35
2018-03-30T13:10:44.873Z,26.50
2018-03-30T13:13:12.417Z,18.00
2018-03-30T13:15:39.903Z,14.27
2018-03-30T13:18:07.357Z,15.93
2018-03-30T13:20:34.860Z,12.48
2018-03-30T13:23:02.339Z,11.95
2018-03-30T13:25:29.829Z,11.10
2018-03-30T13:27:57.393Z,12.07
2018-03-30T13:30:24.959Z,11.57
2018-03-30T13:32:52.453Z,11.93
2018-03-30T13:35:19.941Z,12.23
2018-03-30T13:37:47.423Z,11.55
2018-03-30T13:40:16.924Z,10.85
2018-03-30T13:42:44.374Z,12.60
2018-03-30T13:45:11.883Z,12.17
2018-03-30T13:47:39.369Z,12.33
2018-03-30T13:50:06.843Z,12.07
2018-03-30T13:55:32.890Z,12.45
2018-03-30T13:58:16.197Z,11.95
2018-03-30T14:00:43.693Z,11.90
2018-03-30T14:03:26.492Z,10.52
2018-03-30T14:06:04.552Z,10.75
2018-03-30T14:08:36.719Z,10.77
2018-03-30T14:11:09.653Z,10.18
2018-03-30T14:13:37.105Z,9.43
2018-03-30T14:16:09.230Z,9.07
2018-03-30T14:18:56.273Z,9.23
2018-03-30T14:21:25.304Z,9.70
2018-03-30T14:23:53.791Z,9.27
2018-03-30T14:26:21.933Z,8.70
2018-03-30T14:28:51.240Z,9.05
2018-03-30T14:31:35.652Z,8.30
2018-03-30T14:34:04.102Z,22.83
2018-03-30T14:36:41.523Z,10.32
2018-03-30T14:39:14.717Z,16.97
2018-03-30T14:41:42.240Z,12.37
2018-03-30T14:47:17.332Z,11.12
2018-03-30T14:49:45.697Z,9.10
2018-03-30T14:52:21.974Z,9.38
2018-03-30T14:55:05.963Z,8.77
2018-03-30T14:57:42.663Z,7.47
2018-03-30T15:00:15.795Z,7.17
2018-03-30T15:03:02.527Z,6.60
2018-03-30T15:05:35.705Z,6.72
2018-03-30T15:08:12.423Z,7.00
2018-03-30T15:10:51.564Z,6.33
2018-03-30T15:13:22.689Z,5.90
2018-03-30T15:16:13.245Z,6.40
2018-03-30T15:18:42.492Z,5.90
2018-03-30T15:21:25.597Z,5.77
2018-03-30T15:24:07.389Z,5.77
2018-03-30T15:26:35.521Z,6.90
2018-03-30T15:29:05.533Z,6.93
2018-03-30T15:31:43.605Z,8.93
2018-03-30T15:34:17.805Z,9.33
2018-03-30T15:36:54.735Z,10.13
2018-03-30T15:39:28.054Z,10.83
2018-03-30T15:41:55.590Z,8.90
2018-03-30T15:44:23.805Z,9.37
2018-03-30T15:46:54.396Z,10.50
2018-03-30T15:49:23.541Z,11.10
2018-03-30T15:51:52.017Z,10.23
2018-03-30T15:54:18.984Z,12.17
2018-03-30T15:56:46.499Z,10.57
2018-03-30T15:59:13.983Z,10.07
2018-03-30T16:01:41.559Z,11.03
2018-03-30T16:04:09.155Z,10.37
2018-03-30T16:06:36.723Z,10.20
2018-03-30T16:09:07.670Z,10.13
2018-03-30T16:11:38.767Z,10.63
2018-03-30T16:14:07.289Z,11.40
2018-03-30T16:16:34.889Z,10.83
2018-03-30T16:19:02.210Z,10.70
2018-03-30T16:21:29.255Z,10.47
2018-03-30T16:23:56.240Z,9.77
2018-03-30T16:26:23.246Z,10.47
2018-03-30T16:28:50.427Z,13.20
2018-03-30T16:31:17.415Z,10.93
2018-03-30T16:33:44.743Z,10.47
2018-03-30T16:36:11.970Z,10.80
2018-03-30T16:38:39.467Z,12.20
2018-03-30T16:41:06.389Z,11.80
2018-03-30T16:43:33.363Z,13.33
2018-03-30T16:46:01.164Z,13.33
2018-03-30T16:48:28.071Z,13.13
2018-03-30T16:50:55.019Z,12.80
2018-03-30T16:53:41.675Z,13.57
2018-03-30T16:56:09.114Z,13.27
2018-03-30T16:58:36.321Z,13.77
2018-03-30T17:01:03.276Z,14.80
2018-03-30T17:03:30.351Z,14.20
2018-03-30T17:05:57.253Z,15.87
2018-03-30T17:08:24.221Z,15.50
2018-03-30T17:10:51.209Z,15.30
2018-03-30T17:13:24.609Z,16.30
2018-03-30T17:15:51.685Z,15.43
2018-03-30T17:18:18.638Z,14.73
2018-03-30T17:20:45.555Z,15.27
2018-03-30T17:23:12.487Z,16.63
2018-03-30T17:25:39.421Z,15.43
2018-03-30T17:28:06.429Z,16.10
2018-03-30T17:30:33.870Z,16.80
2018-03-30T17:33:00.819Z,15.40
2018-03-30T17:35:27.884Z,16.13
2018-03-30T17:37:54.803Z,15.20
2018-03-30T17:40:21.845Z,16.63
2018-03-30T17:42:48.705Z,18.60
2018-03-30T17:45:15.661Z,16.00
2018-03-30T17:47:43.558Z,15.03
2018-03-30T17:50:10.464Z,16.13
2018-03-30T17:52:38.281Z,15.87
2018-03-30T17:55:05.299Z,16.73
2018-03-30T17:57:32.221Z,19.93
2018-03-30T17:59:59.413Z,18.10
2018-03-30T18:02:26.469Z,19.73
2018-03-30T18:04:53.451Z,16.80
2018-03-30T18:07:20.427Z,20.77
2018-03-30T18:09:47.359Z,17.50
2018-03-30T18:12:14.290Z,20.87
2018-03-30T18:14:41.273Z,17.27
2018-03-30T18:17:08.215Z,19.27
2018-03-30T18:19:35.269Z,16.37
2018-03-30T18:22:02.202Z,16.13
2018-03-30T18:24:29.192Z,16.07
2018-03-30T18:26:56.124Z,17.13
2018-03-30T18:29:23.117Z,16.07
2018-03-30T18:31:50.126Z,15.87
2018-03-30T18:34:17.126Z,15.43
2018-03-30T18:36:44.049Z,15.07
2018-03-30T18:39:11.117Z,15.17
2018-03-30T18:41:38.200Z,14.63
2018-03-30T18:44:06.267Z,16.30
2018-03-30T18:46:33.225Z,14.30
2018-03-30T18:49:00.162Z,15.43
2018-03-30T18:51:27.108Z,14.17
2018-03-30T18:53:54.397Z,15.90
2018-03-30T18:56:21.381Z,14.13
2018-03-30T18:58:49.280Z,15.20
2018-03-30T19:01:16.232Z,16.23
2018-03-30T19:03:43.230Z,22.23
2018-03-30T19:06:10.266Z,15.23
2018-03-30T19:08:37.409Z,15.17
2018-03-30T19:11:04.491Z,16.57
2018-03-30T19:13:31.498Z,18.20
2018-03-30T19:15:58.726Z,16.47
2018-03-30T19:18:25.689Z,17.90
2018-03-30T19:20:52.849Z,21.50
2018-03-30T19:23:19.853Z,15.63
2018-03-30T19:25:46.810Z,14.80
2018-03-30T19:28:13.773Z,16.30
2018-03-30T19:30:40.849Z,15.30
2018-03-30T19:33:07.844Z,15.00
2018-03-30T19:35:34.994Z,14.63
2018-03-30T19:38:01.972Z,14.93
2018-03-30T19:40:29.840Z,13.93
2018-03-30T19:48:52.249Z,15.00
2018-03-30T19:51:19.161Z,16.13
2018-03-30T19:57:03.551Z,13.40
2018-03-30T19:59:30.541Z,14.93
2018-03-30T20:01:57.707Z,13.80
2018-03-30T20:04:24.713Z,18.20
2018-03-30T20:06:51.657Z,16.63
2018-03-30T20:09:18.814Z,14.13
2018-03-30T20:11:45.734Z,15.77
2018-03-30T20:14:12.815Z,13.70
2018-03-30T20:16:39.849Z,14.23
2018-03-30T20:19:06.794Z,13.30
2018-03-30T20:21:33.989Z,14.97
2018-03-30T20:24:01.038Z,15.77
2018-03-30T20:26:28.010Z,15.70
2018-03-30T20:28:55.045Z,18.47
2018-03-30T20:31:22.027Z,15.20
2018-03-30T20:33:49.023Z,20.07
2018-03-30T20:36:16.008Z,17.37
2018-03-30T20:38:42.970Z,20.93
2018-03-30T20:41:10.025Z,15.43
2018-03-30T20:43:37.838Z,19.50
2018-03-30T20:46:05.278Z,15.23
2018-03-30T20:48:32.971Z,16.83
2018-03-30T20:51:00.913Z,13.53
2018-03-30T20:53:28.224Z,16.63
2018-03-30T20:55:55.151Z,13.63
2018-03-30T20:58:22.274Z,19.60
2018-03-30T21:00:49.307Z,15.57
2018-03-30T21:06:09.468Z,13.50
2018-03-30T21:08:36.573Z,19.63
2018-03-30T21:11:03.496Z,14.97
2018-03-30T21:13:30.424Z,20.20
2018-03-30T21:15:57.414Z,13.70
2018-03-30T21:18:24.668Z,18.20
2018-03-30T21:20:52.428Z,17.93
2018-03-30T21:23:19.453Z,21.47
2018-03-30T21:25:46.379Z,22.33
2018-03-30T21:28:13.406Z,16.60
2018-03-30T21:30:40.589Z,17.77
2018-03-30T21:33:07.542Z,15.03
2018-03-30T21:35:34.470Z,20.17
2018-03-30T21:38:01.730Z,16.53
2018-03-30T21:40:28.622Z,20.73
2018-03-30T21:43:01.198Z,14.97
2018-03-30T21:45:28.422Z,21.40
2018-03-30T21:47:55.411Z,17.73
2018-03-30T21:50:22.371Z,21.90
2018-03-30T21:52:49.308Z,15.70
2018-03-30T21:55:16.238Z,21.87
2018-03-30T21:57:43.132Z,17.73
2018-03-30T22:00:10.069Z,22.97
2018-03-30T22:02:37.012Z,15.70
2018-03-30T22:05:03.971Z,19.33
2018-03-30T22:07:30.913Z,20.93
2018-03-30T22:09:57.870Z,16.27
2018-03-30T22:12:24.998Z,20.93
2018-03-30T22:14:51.979Z,19.60
2018-03-30T22:17:18.976Z,22.40
2018-03-30T22:19:45.950Z,18.83
2018-03-30T22:22:13.040Z,20.80
2018-03-30T22:24:39.965Z,17.47
2018-03-30T22:27:06.908Z,22.63
2018-03-30T22:29:33.959Z,16.63
2018-03-30T22:32:01.110Z,24.20
2018-03-30T22:34:28.045Z,14.63
2018-03-30T22:36:54.973Z,22.37
2018-03-30T22:39:21.882Z,16.50
2018-03-30T22:41:48.797Z,19.70
2018-03-30T22:44:15.729Z,16.60
2018-03-30T22:46:42.907Z,22.27
2018-03-30T22:49:09.802Z,15.20
2018-03-30T22:51:36.783Z,21.77
2018-03-30T22:54:03.704Z,16.73
2018-03-30T22:56:30.625Z,23.00
2018-03-30T22:58:57.542Z,20.13
2018-03-30T23:01:25.353Z,18.50
2018-03-30T23:03:52.285Z,22.03
2018-03-30T23:06:19.168Z,21.83
2018-03-30T23:08:46.123Z,21.60
2018-03-30T23:11:13.107Z,19.97
2018-03-30T23:13:40.001Z,19.23
2018-03-30T23:16:06.955Z,21.50
2018-03-30T23:18:33.897Z,23.87
2018-03-30T23:21:00.838Z,18.97
2018-03-30T23:23:27.729Z,18.83
2018-03-30T23:25:55.447Z,23.57
2018-03-30T23:28:22.362Z,21.63
2018-03-30T23:30:49.321Z,18.33
2018-03-30T23:33:16.231Z,24.53
2018-03-30T23:35:43.373Z,21.07
2018-03-30T23:38:11.059Z,20.77
2018-03-30T23:40:38.207Z,18.70
2018-03-30T23:43:05.081Z,18.43
2018-03-30T23:45:32.003Z,22.67
2018-03-30T23:47:58.943Z,21.87
2018-03-30T23:50:26.093Z,23.57
2018-03-30T23:53:17.218Z,22.20
2018-03-30T23:55:44.150Z,20.80
2018-03-30T23:58:11.105Z,21.47
